Time;durP1;ratioP1;P1;durP2;ratioP2;P2;SDS_P1;SDS_P2;PMS_P1;PMS_P2;Temp;Humidity;BMP_temperature;BMP_pressure;BME280_temperature;BME280_humidity;BME280_pressure;Samples;Min_cycle;Max_cycle;Signal;HPM_P1;HPM_P2
2022/07/10 00:00:51;;;;;;;10.55;7.45;;;;;;;13.70;70.14;97277.91;1831987;78;25731;-74
2022/07/10 00:03:18;;;;;;;10.88;7.50;;;;;;;13.67;70.13;97272.95;1831448;78;26683;-73
2022/07/10 00:05:44;;;;;;;8.23;7.03;;;;;;;13.64;70.21;97265.30;1831886;78;25672;-74
2022/07/10 00:08:11;;;;;;;13.00;6.53;;;;;;;13.60;70.22;97261.39;1831940;78;27360;-73
2022/07/10 00:10:38;;;;;;;15.60;7.28;;;;;;;13.59;70.33;97259.21;1831818;78;25665;-73
2022/07/10 00:13:04;;;;;;;11.55;6.25;;;;;;;13.58;70.35;97262.98;1831985;78;25613;-73
2022/07/10 00:15:32;;;;;;;9.88;6.12;;;;;;;13.57;70.33;97264.56;1831749;78;26358;-74
2022/07/10 00:17:58;;;;;;;12.43;6.20;;;;;;;13.52;70.29;97268.53;1831905;78;26461;-73
2022/07/10 00:20:25;;;;;;;6.53;5.90;;;;;;;13.48;70.42;97268.16;1831845;78;28214;-73
2022/07/10 00:22:52;;;;;;;12.80;7.10;;;;;;;13.44;70.46;97261.53;1831757;78;25696;-73
2022/07/10 00:25:18;;;;;;;9.30;6.60;;;;;;;13.40;70.55;97259.55;1832036;78;25230;-73
2022/07/10 00:27:45;;;;;;;16.52;7.03;;;;;;;13.36;70.56;97256.98;1831821;78;25800;-73
2022/07/10 00:30:12;;;;;;;11.48;5.97;;;;;;;13.32;70.63;97258.80;1831761;78;25622;-73
2022/07/10 00:32:38;;;;;;;8.60;6.22;;;;;;;13.29;70.74;97263.33;1831874;78;27473;-73
2022/07/10 00:35:07;;;;;;;9.20;6.28;;;;;;;13.18;70.84;97257.34;1831657;78;25718;-74
2022/07/10 00:37:34;;;;;;;7.80;5.83;;;;;;;13.17;71.02;97257.05;1831990;78;25661;-74
2022/07/10 00:40:01;;;;;;;14.43;7.72;;;;;;;13.20;71.16;97264.72;1832071;78;25731;-73
2022/07/10 00:42:28;;;;;;;11.73;6.95;;;;;;;13.24;71.24;97263.73;1825454;78;25788;-74
2022/07/10 00:44:54;;;;;;;13.43;7.37;;;;;;;13.26;71.37;97266.52;1811519;79;27328;-73
2022/07/10 00:47:21;;;;;;;12.18;7.53;;;;;;;13.27;71.38;97257.33;1811357;79;25733;-74
2022/07/10 00:49:48;;;;;;;9.73;7.85;;;;;;;13.23;71.35;97254.78;1811355;79;25670;-73
2022/07/10 00:52:17;;;;;;;12.82;7.47;;;;;;;13.24;71.43;97242.88;1811351;79;25743;-74
2022/07/10 00:54:47;;;;;;;12.93;6.50;;;;;;;13.25;71.42;97243.18;1811625;79;25713;-73
2022/07/10 00:57:15;;;;;;;11.75;6.95;;;;;;;13.25;71.43;97242.36;1811344;79;28808;-73
2022/07/10 00:59:43;;;;;;;12.90;6.80;;;;;;;13.24;71.40;97240.70;1811315;79;26330;-73
2022/07/10 01:02:10;;;;;;;10.75;6.62;;;;;;;13.21;71.47;97241.16;1811542;78;25740;-73
2022/07/10 01:04:37;;;;;;;8.68;6.12;;;;;;;13.18;71.53;97239.73;1811517;78;25864;-73
2022/07/10 01:07:04;;;;;;;8.93;6.33;;;;;;;13.18;71.59;97237.02;1811536;79;25638;-73
2022/07/10 01:09:33;;;;;;;9.73;6.25;;;;;;;13.17;71.66;97235.36;1811513;79;27396;-73
2022/07/10 01:12:02;;;;;;;6.70;5.90;;;;;;;13.17;71.69;97234.01;1811455;79;26007;-73
2022/07/10 01:14:30;;;;;;;11.00;6.70;;;;;;;13.16;71.78;97232.35;1811494;79;25702;-73
2022/07/10 01:16:58;;;;;;;10.45;6.72;;;;;;;13.18;71.82;97232.95;1811482;78;25693;-73
2022/07/10 01:19:25;;;;;;;12.35;7.85;;;;;;;13.18;71.88;97227.53;1811352;79;25641;-73
2022/07/10 01:21:52;;;;;;;9.05;6.83;;;;;;;13.18;71.95;97228.89;1811483;79;27515;-74
2022/07/10 01:24:18;;;;;;;8.78;5.90;;;;;;;13.12;72.01;97223.02;1811303;79;25677;-73
2022/07/10 01:26:45;;;;;;;8.70;6.30;;;;;;;13.10;72.01;97211.58;1811479;79;25730;-73
2022/07/10 01:29:12;;;;;;;10.13;6.47;;;;;;;13.12;72.14;97216.25;1811508;79;25687;-73
2022/07/10 01:31:39;;;;;;;9.55;6.03;;;;;;;13.11;72.19;97216.48;1811548;79;25460;-73
2022/07/10 01:34:09;;;;;;;13.60;6.78;;;;;;;13.10;72.28;97214.30;1811526;79;28243;-74
2022/07/10 01:36:37;;;;;;;12.43;6.83;;;;;;;13.11;72.29;97214.59;1811057;78;25906;-73
2022/07/10 01:39:05;;;;;;;10.95;6.35;;;;;;;13.11;72.38;97211.88;1825365;77;25673;-73
2022/07/10 01:41:32;;;;;;;8.08;5.83;;;;;;;13.13;72.34;97213.01;1844603;77;25824;-73
2022/07/10 01:43:58;;;;;;;8.98;6.47;;;;;;;13.13;72.44;97204.35;1844276;77;25700;-73
2022/07/10 01:46:25;;;;;;;8.83;6.15;;;;;;;13.14;72.43;97204.69;1844590;77;27387;-73
2022/07/10 01:48:53;;;;;;;8.20;6.20;;;;;;;13.16;72.47;97201.74;1844162;77;25617;-73
2022/07/10 01:51:20;;;;;;;12.80;6.00;;;;;;;13.16;72.50;97203.90;1844736;77;25692;-73
2022/07/10 01:53:47;;;;;;;8.90;5.90;;;;;;;13.15;72.54;97200.92;1844520;77;25641;-73
2022/07/10 01:56:14;;;;;;;10.10;5.97;;;;;;;13.12;72.60;97195.92;1844642;77;25622;-73
2022/07/10 01:58:42;;;;;;;14.63;6.60;;;;;;;13.12;72.69;97195.09;1811939;77;27402;-73
2022/07/10 02:01:08;;;;;;;7.92;6.25;;;;;;;13.08;72.73;97192.02;1844450;77;25665;-74
2022/07/10 02:06:20;;;;;;;10.95;5.90;;;;;;;13.07;72.87;97182.76;1844262;77;25782;-73
2022/07/10 02:08:47;;;;;;;11.05;5.95;;;;;;;13.07;72.98;97188.17;1844285;77;25688;-73
2022/07/10 02:11:14;;;;;;;10.48;6.05;;;;;;;13.07;72.93;97182.76;1844431;77;28166;-73
2022/07/10 02:13:40;;;;;;;8.48;6.00;;;;;;;13.06;72.94;97186.00;1844543;77;25844;-73
2022/07/10 02:16:07;;;;;;;10.40;6.08;;;;;;;13.02;73.02;97179.94;1844669;77;25211;-73
2022/07/10 02:18:34;;;;;;;11.70;6.78;;;;;;;12.98;73.06;97179.04;1844463;77;26311;-73
2022/07/10 02:21:00;;;;;;;8.15;6.25;;;;;;;12.98;73.08;97178.21;1844631;77;26004;-73
2022/07/10 02:23:28;;;;;;;8.73;6.60;;;;;;;12.96;73.15;97177.09;1844632;77;28208;-73
2022/07/10 02:25:54;;;;;;;9.15;6.53;;;;;;;12.92;73.21;97171.03;1844460;77;25775;-73
2022/07/10 02:28:21;;;;;;;9.23;6.53;;;;;;;12.82;73.23;97169.38;1844538;77;25699;-73
2022/07/10 02:30:47;;;;;;;15.18;5.95;;;;;;;12.77;73.38;97164.68;1844486;77;25802;-73
2022/07/10 02:33:14;;;;;;;9.15;6.22;;;;;;;12.79;73.49;97165.28;1844432;77;25747;-74
2022/07/10 02:35:40;;;;;;;7.62;5.70;;;;;;;12.80;73.54;97158.77;1844553;77;27352;-73
2022/07/10 02:38:07;;;;;;;10.10;6.22;;;;;;;12.81;73.60;97163.66;1844356;77;25671;-73
2022/07/10 02:40:33;;;;;;;10.88;6.53;;;;;;;12.83;73.64;97162.91;1844750;77;25672;-73
2022/07/10 02:43:00;;;;;;;11.93;5.95;;;;;;;12.80;73.75;97162.05;1846133;77;25708;-73
2022/07/10 02:45:27;;;;;;;9.08;6.55;;;;;;;12.69;73.78;97158.74;1850559;77;25216;-73
2022/07/10 02:47:53;;;;;;;9.83;6.55;;;;;;;12.70;73.97;97154.45;1850536;77;28080;-73
2022/07/10 02:50:20;;;;;;;14.30;9.85;;;;;;;12.71;74.10;97152.05;1850444;76;25728;-73
2022/07/10 02:52:46;;;;;;;11.00;8.73;;;;;;;12.65;74.08;97145.39;1850268;77;26690;-73
2022/07/10 02:55:13;;;;;;;11.85;8.70;;;;;;;12.65;74.16;97142.67;1850553;77;26288;-73
2022/07/10 02:57:39;;;;;;;12.43;8.50;;;;;;;12.69;74.23;97141.14;1850598;77;25712;-73
2022/07/10 03:00:09;;;;;;;11.83;7.47;;;;;;;12.72;74.17;97137.45;1850406;77;27419;-73
2022/07/10 03:02:36;;;;;;;10.75;8.05;;;;;;;12.75;74.18;97136.17;1850426;77;25713;-73
2022/07/10 03:05:02;;;;;;;10.43;6.62;;;;;;;12.78;74.23;97133.83;1850810;77;25620;-74
2022/07/10 03:07:29;;;;;;;8.78;7.03;;;;;;;12.77;74.25;97124.05;1850310;77;26481;-73
2022/07/10 03:09:56;;;;;;;8.38;6.90;;;;;;;12.77;74.26;97125.41;1850523;76;25862;-73
2022/07/10 03:12:22;;;;;;;8.73;6.62;;;;;;;12.82;74.22;97126.05;1850276;77;27396;-74
2022/07/10 03:14:49;;;;;;;9.25;6.53;;;;;;;12.84;74.29;97136.13;1850239;75;25785;-75
2022/07/10 03:17:15;;;;;;;8.33;6.78;;;;;;;12.80;74.32;97138.47;1850365;76;25771;-74
2022/07/10 03:19:42;;;;;;;9.48;6.10;;;;;;;12.82;74.49;97136.35;1850462;76;25727;-74
2022/07/10 03:22:08;;;;;;;8.23;6.45;;;;;;;12.84;74.51;97133.41;1850526;77;25703;-74
2022/07/10 03:24:35;;;;;;;8.43;6.00;;;;;;;12.88;74.67;97125.13;1850258;77;27669;-74
2022/07/10 03:27:05;;;;;;;8.55;6.53;;;;;;;12.91;74.79;97134.16;1850038;77;43176;-74
2022/07/10 03:29:32;;;;;;;14.40;7.67;;;;;;;12.93;74.75;97128.78;1850453;77;26410;-74
2022/07/10 03:31:58;;;;;;;11.75;8.03;;;;;;;12.98;74.81;97129.45;1850225;77;25710;-74
2022/07/10 03:34:25;;;;;;;11.88;7.90;;;;;;;13.01;74.78;97120.86;1850463;77;25624;-74
2022/07/10 03:36:52;;;;;;;11.15;7.35;;;;;;;12.97;74.66;97122.38;1850553;77;27359;-73
2022/07/10 03:39:18;;;;;;;9.38;7.17;;;;;;;13.00;74.77;97123.27;1850224;77;25998;-74
2022/07/10 03:41:45;;;;;;;11.70;7.05;;;;;;;13.05;74.88;97124.73;1850436;77;25752;-74
2022/07/10 03:44:11;;;;;;;9.20;7.03;;;;;;;13.05;74.75;97122.02;1846443;77;25725;-74
2022/07/10 03:46:38;;;;;;;12.63;6.85;;;;;;;13.03;74.75;97118.75;1844665;77;25194;-74
2022/07/10 03:49:06;;;;;;;10.28;7.30;;;;;;;13.07;74.81;97123.97;1844336;77;27382;-74
2022/07/10 03:51:33;;;;;;;11.10;7.53;;;;;;;13.14;74.91;97116.61;1788106;78;25733;-75
2022/07/10 03:53:59;;;;;;;11.78;7.00;;;;;;;13.19;74.86;97113.17;1788168;79;25743;-75
2022/07/10 03:59:11;;;;;;;7.28;6.45;;;;;;;13.28;74.78;97111.78;1788080;79;25783;-74
2022/07/10 04:01:38;;;;;;;10.03;6.55;;;;;;;13.33;74.91;97110.00;1788066;79;27318;-74
2022/07/10 04:04:04;;;;;;;9.23;5.97;;;;;;;13.39;74.86;97114.20;1788046;79;25262;-75
2022/07/10 04:06:33;;;;;;;7.58;5.83;;;;;;;13.44;74.78;97115.66;1788219;80;25710;-75
2022/07/10 04:08:59;;;;;;;6.92;6.20;;;;;;;13.47;74.73;97109.77;1788151;78;26579;-75
2022/07/10 04:11:26;;;;;;;8.75;6.37;;;;;;;13.52;74.71;97108.01;1788400;79;25879;-76
2022/07/10 04:13:53;;;;;;;9.05;7.10;;;;;;;13.57;74.77;97105.39;1788387;79;27613;-75
2022/07/10 04:16:19;;;;;;;7.22;6.47;;;;;;;13.61;74.81;97096.27;1788191;79;25681;-75
2022/07/10 04:18:46;;;;;;;12.95;7.00;;;;;;;13.63;74.84;97097.68;1788328;79;25295;-75
2022/07/10 04:21:12;;;;;;;8.63;6.85;;;;;;;13.71;74.99;97100.55;1788284;79;25744;-75
2022/07/10 04:23:39;;;;;;;8.08;6.60;;;;;;;13.77;74.91;97100.93;1788366;80;25823;-74
2022/07/10 04:26:05;;;;;;;8.30;6.45;;;;;;;13.81;74.93;97097.22;1781429;79;27494;-75
2022/07/10 04:28:32;;;;;;;9.25;6.00;;;;;;;13.82;75.10;97098.34;1755432;81;25782;-74
2022/07/10 04:30:59;;;;;;;10.38;6.25;;;;;;;13.85;74.90;97092.44;1755403;81;25743;-75
2022/07/10 04:33:28;;;;;;;11.25;6.53;;;;;;;13.88;74.87;97093.86;1755583;81;25791;-75
2022/07/10 04:35:55;;;;;;;7.17;6.47;;;;;;;13.92;74.94;97098.55;1755423;81;25950;-76
2022/07/10 04:38:21;;;;;;;9.85;7.28;;;;;;;13.99;74.95;97094.36;1755435;81;27024;-75
2022/07/10 04:40:48;;;;;;;8.78;6.60;;;;;;;14.04;74.83;97095.80;1755460;81;25778;-75
2022/07/10 04:43:15;;;;;;;6.75;6.00;;;;;;;14.06;74.79;97092.31;1755109;79;25875;-75
2022/07/10 04:45:41;;;;;;;8.25;6.53;;;;;;;14.03;74.69;97087.36;1755494;81;25767;-75
2022/07/10 04:48:08;;;;;;;8.45;6.62;;;;;;;14.06;74.77;97088.25;1789444;77;25674;-75
2022/07/10 04:50:34;;;;;;;8.00;6.53;;;;;;;14.09;74.89;97082.34;1844716;77;27326;-75
2022/07/10 04:53:01;;;;;;;9.23;6.47;;;;;;;14.14;74.92;97087.03;1844253;77;25784;-75
2022/07/10 04:55:27;;;;;;;8.93;6.75;;;;;;;14.18;75.00;97090.92;1844691;77;25665;-75
2022/07/10 04:57:54;;;;;;;7.45;6.70;;;;;;;14.14;75.02;97084.31;1844600;77;25667;-77
2022/07/10 05:00:21;;;;;;;11.20;6.95;;;;;;;14.12;74.89;97087.83;1844701;77;25832;-77
2022/07/10 05:02:47;;;;;;;12.23;7.33;;;;;;;14.11;75.13;97087.00;1844806;77;28128;-76
2022/07/10 05:05:14;;;;;;;10.65;7.17;;;;;;;14.10;75.33;97083.17;1844539;77;25778;-76
2022/07/10 05:07:40;;;;;;;10.72;7.75;;;;;;;14.13;75.67;97084.05;1844549;77;25661;-75
2022/07/10 05:10:08;;;;;;;8.95;7.53;;;;;;;14.12;75.73;97076.97;1844593;77;25716;-75
2022/07/10 05:12:35;;;;;;;9.28;7.70;;;;;;;14.15;75.91;97084.61;1844688;77;25670;-75
2022/07/10 05:15:02;;;;;;;11.78;7.55;;;;;;;14.18;76.02;97083.60;1844627;77;27276;-75
2022/07/10 05:17:29;;;;;;;9.63;8.00;;;;;;;14.21;75.89;97084.48;1844667;77;25749;-75
2022/07/10 05:19:56;;;;;;;9.78;7.70;;;;;;;14.24;76.06;97083.18;1844482;77;25653;-78
2022/07/10 05:22:23;;;;;;;9.73;7.62;;;;;;;14.27;76.29;97090.81;1844719;77;25894;-79
2022/07/10 05:24:50;;;;;;;10.35;7.90;;;;;;;14.32;76.46;97089.03;1844552;77;25202;-78
2022/07/10 05:27:19;;;;;;;9.23;7.60;;;;;;;14.38;76.10;97085.87;1844695;77;27422;-78
2022/07/10 05:29:45;;;;;;;9.08;7.08;;;;;;;;;;1844567;77;25616;-77
2022/07/10 05:32:11;;;;;;;10.63;7.55;;;;;;;14.39;75.68;97080.73;1844787;77;25687;-75
2022/07/10 05:34:38;;;;;;;9.35;7.08;;;;;;;14.38;75.94;97076.36;1844742;77;25719;-76
2022/07/10 05:37:06;;;;;;;7.92;7.10;;;;;;;14.41;76.12;97082.70;1843705;76;25624;-77
2022/07/10 05:39:33;;;;;;;8.13;6.58;;;;;;;14.43;76.37;97073.79;1813989;76;27386;-75
2022/07/10 05:42:00;;;;;;;8.30;6.15;;;;;;;14.39;76.00;97073.94;1811295;79;25771;-78
2022/07/10 05:44:27;;;;;;;8.23;5.92;;;;;;;14.37;75.86;97078.78;1811333;78;25593;-78
2022/07/10 05:46:53;;;;;;;7.17;5.90;;;;;;;14.38;75.94;97073.65;1811117;79;25735;-78
2022/07/10 05:49:20;;;;;;;7.50;6.60;;;;;;;14.38;76.17;97068.22;1811496;78;25628;-79
2022/07/10 05:51:46;;;;;;;6.95;6.25;;;;;;;14.42;76.32;97073.49;1811432;79;27451;-79
2022/07/10 05:54:13;;;;;;;9.15;6.42;;;;;;;14.46;76.30;97065.16;1811126;79;25620;-77
2022/07/10 05:56:39;;;;;;;8.03;7.20;;;;;;;14.54;76.52;97067.47;1811474;78;25725;-78
2022/07/10 05:59:06;;;;;;;7.35;6.08;;;;;;;14.62;76.69;97064.34;1811107;79;26598;-80
2022/07/10 06:01:33;;;;;;;7.03;5.45;;;;;;;14.63;76.88;97062.45;1811418;79;25609;-79
2022/07/10 06:03:59;;;;;;;5.37;4.72;;;;;;;14.66;76.69;97064.16;1811322;79;27590;-78
2022/07/10 06:06:26;;;;;;;6.35;5.33;;;;;;;14.69;76.53;97066.39;1811281;79;25198;-79
2022/07/10 06:08:52;;;;;;;5.28;4.85;;;;;;;14.75;76.58;97065.92;1811445;79;25736;-79
2022/07/10 06:11:19;;;;;;;8.45;4.90;;;;;;;14.82;76.69;97069.32;1811431;79;25883;-75
2022/07/10 06:13:46;;;;;;;6.45;4.60;;;;;;;14.88;76.70;97055.27;1811490;79;25799;-79
2022/07/10 06:16:13;;;;;;;4.97;4.50;;;;;;;14.94;76.63;97054.29;1811291;78;27370;-79
2022/07/10 06:18:39;;;;;;;5.90;4.72;;;;;;;15.02;76.40;97053.87;1811220;79;25737;-80
2022/07/10 06:21:06;;;;;;;8.15;4.75;;;;;;;15.13;76.33;97054.31;1811333;79;25720;-79
2022/07/10 06:23:32;;;;;;;6.40;4.95;;;;;;;15.23;76.29;97056.35;1811072;79;25748;-81
2022/07/10 06:25:59;;;;;;;5.22;4.67;;;;;;;15.31;76.25;97045.90;1811099;79;25712;-77
2022/07/10 06:28:26;;;;;;;5.87;4.70;;;;;;;15.31;76.16;97050.52;1811331;79;28168;-78
2022/07/10 06:30:52;;;;;;;5.20;4.70;;;;;;;15.28;75.75;97045.03;1811241;79;25657;-77
2022/07/10 06:33:19;;;;;;;5.30;4.80;;;;;;;15.27;75.56;97050.72;1811416;79;25744;-80
2022/07/10 06:35:46;;;;;;;5.87;4.37;;;;;;;15.20;75.71;97054.98;1811453;79;25739;-80
2022/07/10 06:38:12;;;;;;;10.25;5.15;;;;;;;15.17;75.85;97059.55;1811601;79;25698;-84
2022/07/10 06:40:39;;;;;;;7.90;5.50;;;;;;;15.15;75.73;97060.33;1811415;79;28007;-82
2022/07/10 06:43:05;;;;;;;6.55;4.75;;;;;;;15.11;75.68;97057.80;1811173;79;25695;-79
2022/07/10 06:45:32;;;;;;;7.62;4.87;;;;;;;15.00;75.79;97056.83;1811080;78;25751;-80
2022/07/10 06:47:59;;;;;;;5.08;4.58;;;;;;;14.97;76.09;97064.67;1811448;79;25626;-80
2022/07/10 06:50:32;;;;;;;5.12;4.53;;;;;;;14.76;75.96;97063.50;1811450;78;25696;-79
2022/07/10 06:52:59;;;;;;;5.03;4.53;;;;;;;14.69;76.10;97065.03;1811410;79;27470;-80
2022/07/10 06:55:27;;;;;;;5.55;4.50;;;;;;;14.69;76.08;97067.74;1810979;79;25700;-79
2022/07/10 06:57:55;;;;;;;6.03;5.30;;;;;;;14.73;76.07;97068.09;1811377;79;25783;-80
2022/07/10 07:00:22;;;;;;;8.43;5.72;;;;;;;14.67;76.30;97069.88;1811419;79;26280;-79
2022/07/10 07:02:49;;;;;;;7.72;6.60;;;;;;;14.66;76.21;97075.02;1811283;79;25653;-77
2022/07/10 07:05:16;;;;;;;9.23;8.10;;;;;;;14.64;76.19;97071.72;1811320;79;27392;-76
2022/07/10 07:07:42;;;;;;;9.80;8.80;;;;;;;14.58;76.34;97076.78;1811380;79;25871;-77
2022/07/10 07:10:10;;;;;;;9.93;8.98;;;;;;;14.51;76.67;97073.38;1811347;79;25658;-76
2022/07/10 07:12:38;;;;;;;11.30;10.20;;;;;;;14.55;76.73;97073.73;1811034;78;25724;-76
2022/07/10 07:15:07;;;;;;;17.05;10.45;;;;;;;14.63;77.01;97075.50;1811385;79;25747;-76
2022/07/10 07:17:56;;;;;;;13.35;10.43;;;;;;;14.68;77.33;97078.85;1811362;79;27387;-76
2022/07/10 07:23:10;;;;;;;11.05;8.83;;;;;;;15.00;77.90;97087.27;1811123;79;25731;-76
2022/07/10 07:30:38;;;;;;;6.03;5.40;;;;;;;15.23;76.84;97083.01;1682539;85;27244;-76
2022/07/10 07:33:04;;;;;;;6.37;5.67;;;;;;;15.16;76.24;97083.73;1682322;85;25912;-76
2022/07/10 07:35:31;;;;;;;6.50;5.00;;;;;;;15.16;76.05;97082.37;1682555;85;25310;-76
2022/07/10 07:37:58;;;;;;;5.00;4.60;;;;;;;15.18;76.01;97084.84;1682445;85;25833;-76
2022/07/10 07:40:24;;;;;;;6.17;4.45;;;;;;;15.21;75.86;97085.72;1682369;85;25832;-75
2022/07/10 07:42:56;;;;;;;4.70;4.30;;;;;;;15.28;75.72;97087.17;1682416;85;28136;-76
2022/07/10 07:45:24;;;;;;;6.25;4.08;;;;;;;15.36;75.74;97081.84;1682152;85;26110;-75
2022/07/10 07:47:53;;;;;;;5.15;3.70;;;;;;;15.44;75.22;97088.23;1682228;85;25792;-75
2022/07/10 07:50:26;;;;;;;4.00;3.60;;;;;;;15.48;74.59;97084.75;1682230;85;25925;-75
2022/07/10 07:52:54;;;;;;;4.22;3.65;;;;;;;15.47;74.95;97086.36;1670001;85;25873;-75
2022/07/10 07:55:22;;;;;;;3.98;3.22;;;;;;;15.45;74.65;97086.63;1670121;85;28315;-75
2022/07/10 07:57:53;;;;;;;3.58;3.27;;;;;;;15.50;74.51;97081.78;1670033;85;25700;-76
2022/07/10 08:00:22;;;;;;;4.12;3.37;;;;;;;15.58;74.57;97080.58;1611450;89;26565;-75
2022/07/10 08:02:50;;;;;;;3.52;3.20;;;;;;;15.65;74.15;97080.67;1611730;89;26044;-76
2022/07/10 08:05:18;;;;;;;4.17;3.77;;;;;;;15.67;73.80;97074.98;1611527;89;25756;-76
2022/07/10 08:07:49;;;;;;;3.37;3.08;;;;;;;15.68;73.83;97081.54;1611502;89;27399;-75
2022/07/10 08:10:19;;;;;;;3.87;3.02;;;;;;;15.68;73.52;97084.27;1607669;88;25760;-76
2022/07/10 08:12:47;;;;;;;4.78;3.27;;;;;;;15.70;73.24;97088.06;1611664;89;25832;-76
2022/07/10 08:15:16;;;;;;;3.90;3.50;;;;;;;15.73;73.72;97088.93;1611753;89;25924;-76
2022/07/10 08:17:44;;;;;;;3.80;3.50;;;;;;;15.77;73.83;97093.62;1614048;87;26098;-75
2022/07/10 08:20:12;;;;;;;3.15;2.85;;;;;;;15.83;73.49;97084.98;1616444;87;27604;-76
2022/07/10 08:22:41;;;;;;;5.08;2.87;;;;;;;15.87;73.48;97090.75;1618968;87;25791;-76
2022/07/10 08:25:08;;;;;;;3.72;3.02;;;;;;;15.95;73.47;97092.48;1586435;90;25766;-76
2022/07/10 08:27:35;;;;;;;3.25;2.75;;;;;;;15.99;72.11;97093.63;1599650;88;25843;-76
2022/07/10 08:30:03;;;;;;;2.75;2.52;;;;;;;15.91;72.05;97092.72;1613215;88;25789;-76
2022/07/10 08:32:30;;;;;;;3.10;2.50;;;;;;;15.87;71.39;97090.21;1690890;84;27357;-77
2022/07/10 08:34:56;;;;;;;6.30;2.92;;;;;;;15.90;71.03;97099.23;1701533;84;25804;-76
2022/07/10 08:37:23;;;;;;;3.22;2.60;;;;;;;15.85;71.37;97104.07;1701608;84;25309;-76
2022/07/10 08:39:49;;;;;;;3.02;2.52;;;;;;;15.81;71.29;97104.84;1701586;84;26374;-76
2022/07/10 08:42:16;;;;;;;3.67;3.00;;;;;;;15.75;71.18;97108.55;1701579;84;26308;-77
2022/07/10 08:44:43;;;;;;;3.58;2.80;;;;;;;15.70;71.52;97108.47;1701464;84;27453;-76
2022/07/10 08:47:11;;;;;;;5.28;2.92;;;;;;;15.65;71.00;97111.14;1701310;84;26538;-77
2022/07/10 08:49:38;;;;;;;5.03;3.20;;;;;;;15.58;70.69;97110.51;1718491;81;25769;-76
2022/07/10 08:52:11;;;;;;;7.90;3.47;;;;;;;15.55;70.71;97108.28;1742296;82;26329;-76
2022/07/10 08:54:38;;;;;;;3.45;2.80;;;;;;;15.55;71.09;97113.72;1742353;82;25984;-77
2022/07/10 08:57:05;;;;;;;3.30;3.00;;;;;;;15.61;70.89;97104.00;1772199;79;28290;-76
2022/07/10 08:59:32;;;;;;;3.47;2.65;;;;;;;15.67;70.84;97104.91;1811579;79;25647;-76
2022/07/10 09:02:00;;;;;;;2.98;2.72;;;;;;;15.79;70.47;97104.27;1811770;79;25676;-77
2022/07/10 09:04:27;;;;;;;2.90;2.60;;;;;;;16.03;70.43;97105.67;1811654;79;25817;-76
2022/07/10 09:06:55;;;;;;;4.95;2.70;;;;;;;16.26;70.11;97105.13;1811573;79;25751;-77
2022/07/10 09:09:23;;;;;;;5.55;2.30;;;;;;;16.39;70.04;97102.01;1811366;79;27409;-76
2022/07/10 09:11:58;;;;;;;3.02;2.17;;;;;;;16.61;69.77;97097.34;1811636;79;25624;-76
2022/07/10 09:14:28;;;;;;;6.25;2.40;;;;;;;16.90;69.04;97093.27;1811111;79;25685;-77
2022/07/10 09:16:55;;;;;;;5.10;2.52;;;;;;;17.08;68.89;97099.44;1811675;79;25726;-76
2022/07/10 09:19:28;;;;;;;5.47;2.37;;;;;;;17.05;67.92;97094.49;1811635;79;25647;-76
2022/07/10 09:22:08;;;;;;;3.62;2.12;;;;;;;17.08;67.74;97095.34;1811596;79;27360;-77
2022/07/10 09:24:42;;;;;;;5.42;2.60;;;;;;;17.10;67.21;97090.45;1664814;86;25924;-76
2022/07/10 09:27:11;;;;;;;2.55;2.08;;;;;;;17.22;66.97;97093.83;1581222;90;25782;-77
2022/07/10 09:29:54;;;;;;;3.27;2.95;;;;;;;17.24;66.26;97084.84;1607974;89;25780;-76
2022/07/10 09:32:18;;;;;;;4.55;2.85;;;;;;;17.30;66.18;97089.24;1604864;89;25744;-77
2022/07/10 09:34:48;;;;;;;2.98;2.50;;;;;;;17.32;65.92;97088.98;1607751;89;27566;-76
2022/07/10 09:37:27;;;;;;;2.72;2.52;;;;;;;17.28;65.58;97098.22;1533381;93;25627;-76
2022/07/10 09:40:04;;;;;;;6.05;3.00;;;;;;;16.97;65.84;97108.07;1519136;94;25821;-77
2022/07/10 09:42:36;;;;;;;4.28;2.65;;;;;;;16.49;66.56;97119.83;1519049;94;26350;-77
2022/07/10 09:45:18;;;;;;;6.08;3.05;;;;;;;15.86;66.85;97111.70;1519170;94;25776;-77
2022/07/10 09:48:00;;;;;;;4.30;2.77;;;;;;;15.55;67.85;97117.80;1519201;94;27642;-77
2022/07/10 09:50:31;;;;;;;4.03;3.02;;;;;;;15.44;68.84;97113.54;1519044;94;26655;-77
2022/07/10 09:53:04;;;;;;;4.50;3.00;;;;;;;15.29;69.77;97109.22;1516707;94;25852;-77
2022/07/10 09:55:34;;;;;;;5.15;3.10;;;;;;;15.48;70.99;97109.23;1449938;97;25808;-76
2022/07/10 09:58:04;;;;;;;5.03;3.25;;;;;;;16.09;72.00;97104.64;1449770;98;25857;-76
2022/07/10 10:00:34;;;;;;;3.65;3.10;;;;;;;16.58;71.91;97111.47;1447714;98;27510;-76
2022/07/10 10:03:07;;;;;;;4.25;3.12;;;;;;;16.93;70.85;97104.20;1449934;98;26056;-75
2022/07/10 10:05:42;;;;;;;4.70;3.15;;;;;;;17.36;70.50;97099.13;1428833;100;25900;-76
2022/07/10 10:08:25;;;;;;;5.25;3.02;;;;;;;17.53;69.71;97099.77;1408260;101;26495;-76
2022/07/10 10:10:52;;;;;;;;;;;;;;;17.61;68.87;97100.66;1368153;104;26007;-76
2022/07/10 10:13:27;;;;;;;4.55;2.50;;;;;;;17.54;68.30;97089.14;1367235;104;27548;-77
2022/07/10 10:15:53;;;;;;;5.03;2.90;;;;;;;17.57;68.65;97093.25;1367050;104;26694;-76
2022/07/10 10:18:22;;;;;;;2.40;2.20;;;;;;;17.55;67.86;97089.95;1367225;104;25918;-76
2022/07/10 10:20:51;;;;;;;3.42;2.37;;;;;;;17.53;67.30;97086.66;1378072;101;25875;-76
2022/07/10 10:23:20;;;;;;;6.58;2.27;;;;;;;17.40;67.48;97082.48;1419125;97;25943;-77
2022/07/10 10:25:49;;;;;;;5.78;2.50;;;;;;;17.40;67.29;97080.30;1473690;95;27437;-76
2022/07/10 10:28:17;;;;;;;8.43;2.98;;;;;;;17.70;67.79;97082.45;1453362;97;25837;-77
2022/07/10 10:30:46;;;;;;;5.50;2.40;;;;;;;18.02;68.24;97079.05;1473441;95;26658;-76
2022/07/10 10:33:35;;;;;;;4.47;2.40;;;;;;;18.07;67.28;97078.26;1454666;97;26841;-76
2022/07/10 10:36:03;;;;;;;2.55;1.95;;;;;;;18.38;67.61;97075.08;1492297;94;25818;-77
2022/07/10 10:38:57;;;;;;;3.00;2.20;;;;;;;18.85;66.98;97070.28;1492409;96;28311;-77
2022/07/10 10:41:32;;;;;;;4.55;2.10;;;;;;;19.06;65.23;97070.59;1492221;94;25722;-76
2022/07/10 10:44:14;;;;;;;5.22;1.95;;;;;;;18.75;63.81;97074.37;1458916;97;25883;-76
2022/07/10 10:47:06;;;;;;;;;;;;;;;18.26;63.57;97079.41;1443665;98;25921;-76
2022/07/10 10:49:56;;;;;;;6.03;2.05;;;;;;;17.94;62.93;97087.76;1448254;97;25817;-76
2022/07/10 10:52:24;;;;;;;3.43;2.10;;;;;;;17.62;64.18;97090.03;1474194;96;27528;-76
2022/07/10 10:55:03;;;;;;;4.53;2.00;;;;;;;17.39;64.64;97090.39;1484906;95;25966;-76
2022/07/10 11:00:09;;;;;;;5.55;2.60;;;;;;;17.38;64.92;97077.86;1443830;99;25943;-77
2022/07/10 11:02:41;;;;;;;3.35;2.02;;;;;;;17.46;64.86;97077.36;1443961;99;25850;-76
2022/07/10 11:05:22;;;;;;;5.83;2.15;;;;;;;17.64;64.87;97075.58;1444960;99;28732;-77
2022/07/10 11:08:03;;;;;;;2.70;2.10;;;;;;;18.09;65.23;97072.81;1492883;94;25793;-77
2022/07/10 11:10:37;;;;;;;5.63;2.03;;;;;;;18.54;64.99;97079.50;1535490;93;25789;-77
2022/07/10 11:13:08;;;;;;;4.17;1.90;;;;;;;18.73;62.93;97071.08;1533157;93;25817;-77
2022/07/10 11:15:40;;;;;;;7.35;2.08;;;;;;;18.74;62.49;97063.16;1535457;93;25963;-77
2022/07/10 11:18:11;;;;;;;3.08;2.20;;;;;;;18.74;62.25;97072.73;1517207;94;27471;-77
2022/07/10 11:20:53;;;;;;;5.30;2.02;;;;;;;18.79;61.95;97061.81;1525731;91;25858;-77
2022/07/10 11:23:44;;;;;;;5.33;2.10;;;;;;;18.80;61.68;97063.45;1570962;91;25797;-77
2022/07/10 11:26:16;;;;;;;6.30;2.22;;;;;;;18.80;61.08;97062.63;1570998;91;25859;-77
2022/07/10 11:28:55;;;;;;;5.40;2.08;;;;;;;18.76;61.27;97058.24;1557074;92;25792;-77
2022/07/10 11:31:24;;;;;;;4.72;2.12;;;;;;;18.82;60.92;97057.17;1587358;90;28513;-77
2022/07/10 11:33:54;;;;;;;3.47;1.80;;;;;;;19.00;62.08;97063.45;1564610;91;25795;-77
2022/07/10 11:36:28;;;;;;;3.67;1.90;;;;;;;19.19;61.32;97054.72;1564641;90;25846;-77
2022/07/10 11:39:00;;;;;;;3.98;1.92;;;;;;;19.30;61.21;97048.13;1590809;90;25887;-77
2022/07/10 11:41:27;;;;;;;6.08;1.50;;;;;;;19.66;61.11;97046.18;1606140;89;25834;-78
2022/07/10 11:44:03;;;;;;;6.65;1.60;;;;;;;19.93;59.98;97049.91;1590750;90;27422;-78
2022/07/10 11:46:33;;;;;;;3.80;1.30;;;;;;;19.83;59.20;97049.39;1597509;88;25822;-77
2022/07/10 11:49:05;;;;;;;2.75;1.30;;;;;;;19.69;57.83;97061.48;1604322;88;25449;-76
2022/07/10 11:51:39;;;;;;;5.28;1.50;;;;;;;18.85;56.67;97068.91;1598731;89;25811;-77
2022/07/10 11:54:11;;;;;;;3.75;1.60;;;;;;;18.39;58.16;97084.38;1597264;89;25335;-76